KAUS/AUS METAR and TAF weather

Enter ICAO airport designator
Station Type Date Time Source
KAUS METAR 2021/07/30 07:53 UTC NOAA

KAUS 300753Z 00000KT 10SM CLR 23/22 A3003 RMK AO2 SLP157 T02280217


Station Type Date Time Source
KAUS Decoded METAR 2021/07/30 07:53 UTC NOAA

AUSTIN-BERGSTROM INTERNATIONAL AIRPORT, TX, United States (KAUS) 30-11N 097-41W 172M
Jul 30, 2021 - 03:53 AM EDT / 2021.07.30 0753 UTC
Wind: Calm:0
Visibility: 10 mile(s):0
Sky conditions: clear
Temperature: 73.0 F (22.8 C)
Dew Point: 71.1 F (21.7 C)
Relative Humidity: 93%
Pressure (altimeter): 30.03 in. Hg (1016 hPa)
ob: KAUS 300753Z 00000KT 10SM CLR 23/22 A3003 RMK AO2 SLP157 T02280217
cycle: 8

Station Type Date Time Source
KAUS TAF 2021/07/30 06:36 UTC NOAA

TAF KAUS 300534Z 3006/3112 VRB03KT P6SM FEW100
FM301000 VRB03KT P6SM SCT010 SCT250
FM301600 12007KT P6SM SCT050 BKN250
FM310500 16004KT P6SM SCT030 SCT200

Example: see airport list